sensor_id;sensor_type;location;lat;lon;timestamp;pressure;altitude;pressure_sealevel;temperature;humidity
63097;BME280;49185;42.320;23.198;2022-10-16T00:00:35;95372.28;;;5.11;85.63
63097;BME280;49185;42.320;23.198;2022-10-16T00:03:02;95376.56;;;5.12;85.24
63097;BME280;49185;42.320;23.198;2022-10-16T00:05:28;95376.38;;;5.14;85.25
63097;BME280;49185;42.320;23.198;2022-10-16T00:07:53;95376.16;;;5.09;85.79
63097;BME280;49185;42.320;23.198;2022-10-16T00:10:19;95380.38;;;4.97;85.58
63097;BME280;49185;42.320;23.198;2022-10-16T00:12:44;95380.22;;;5.18;85.17
63097;BME280;49185;42.320;23.198;2022-10-16T00:15:10;95378.81;;;5.16;85.26
63097;BME280;49185;42.320;23.198;2022-10-16T00:17:35;95377.94;;;4.95;85.56
63097;BME280;49185;42.320;23.198;2022-10-16T00:20:01;95383.66;;;5.05;86.01
63097;BME280;49185;42.320;23.198;2022-10-16T00:22:26;95389.50;;;4.94;85.27
63097;BME280;49185;42.320;23.198;2022-10-16T00:24:52;95388.34;;;5.17;84.61
63097;BME280;49185;42.320;23.198;2022-10-16T00:27:17;95392.97;;;5.01;85.13
63097;BME280;49185;42.320;23.198;2022-10-16T00:29:43;95393.09;;;4.86;85.56
63097;BME280;49185;42.320;23.198;2022-10-16T00:32:09;95394.28;;;4.77;85.86
63097;BME280;49185;42.320;23.198;2022-10-16T00:34:34;95393.06;;;4.73;85.87
63097;BME280;49185;42.320;23.198;2022-10-16T00:37:00;95397.66;;;4.64;86.27
63097;BME280;49185;42.320;23.198;2022-10-16T00:39:26;95398.25;;;4.60;86.56
63097;BME280;49185;42.320;23.198;2022-10-16T00:41:51;95393.84;;;4.73;86.16
63097;BME280;49185;42.320;23.198;2022-10-16T00:44:49;95390.94;;;4.62;86.56
63097;BME280;49185;42.320;23.198;2022-10-16T00:47:20;95397.16;;;4.47;87.06
63097;BME280;49185;42.320;23.198;2022-10-16T00:49:47;95415.16;;;4.44;87.05
63097;BME280;49185;42.320;23.198;2022-10-16T00:52:15;95417.53;;;4.67;86.47
63097;BME280;49185;42.320;23.198;2022-10-16T00:54:41;95411.13;;;4.48;86.61
63097;BME280;49185;42.320;23.198;2022-10-16T00:57:07;95417.31;;;4.62;86.90
63097;BME280;49185;42.320;23.198;2022-10-16T00:59:36;95418.81;;;4.43;86.26
63097;BME280;49185;42.320;23.198;2022-10-16T01:02:06;95417.09;;;4.28;86.42
63097;BME280;49185;42.320;23.198;2022-10-16T01:04:43;95416.84;;;3.95;87.23
63097;BME280;49185;42.320;23.198;2022-10-16T01:12:48;95425.66;;;4.37;87.26
63097;BME280;49185;42.320;23.198;2022-10-16T01:17:48;95425.94;;;4.49;86.50
63097;BME280;49185;42.320;23.198;2022-10-16T01:20:21;95433.03;;;4.83;83.93
63097;BME280;49185;42.320;23.198;2022-10-16T01:26:09;95430.66;;;4.25;86.13
63097;BME280;49185;42.320;23.198;2022-10-16T01:28:38;95425.75;;;3.94;87.62
63097;BME280;49185;42.320;23.198;2022-10-16T01:31:05;95425.63;;;3.80;87.80
63097;BME280;49185;42.320;23.198;2022-10-16T01:33:59;95431.66;;;3.74;88.35
63097;BME280;49185;42.320;23.198;2022-10-16T01:36:31;95433.41;;;3.67;89.26
63097;BME280;49185;42.320;23.198;2022-10-16T01:39:01;95433.16;;;3.62;88.79
63097;BME280;49185;42.320;23.198;2022-10-16T01:41:34;95432.63;;;3.73;89.15
63097;BME280;49185;42.320;23.198;2022-10-16T01:44:08;95432.00;;;3.71;88.88
63097;BME280;49185;42.320;23.198;2022-10-16T01:46:38;95430.00;;;3.73;88.70
63097;BME280;49185;42.320;23.198;2022-10-16T01:49:06;95427.25;;;3.60;89.23
63097;BME280;49185;42.320;23.198;2022-10-16T01:51:35;95427.56;;;3.50;89.17
63097;BME280;49185;42.320;23.198;2022-10-16T01:54:04;95433.06;;;3.55;89.44
63097;BME280;49185;42.320;23.198;2022-10-16T01:56:31;95429.19;;;3.51;89.42
63097;BME280;49185;42.320;23.198;2022-10-16T01:59:05;95432.78;;;3.44;89.42
63097;BME280;49185;42.320;23.198;2022-10-16T02:01:33;95437.63;;;3.47;89.35
63097;BME280;49185;42.320;23.198;2022-10-16T02:04:06;95438.03;;;3.44;89.59
63097;BME280;49185;42.320;23.198;2022-10-16T02:06:33;95443.84;;;3.39;89.72
63097;BME280;49185;42.320;23.198;2022-10-16T02:08:59;95447.69;;;3.58;89.62
63097;BME280;49185;42.320;23.198;2022-10-16T02:11:24;95456.47;;;3.65;88.83
63097;BME280;49185;42.320;23.198;2022-10-16T02:13:56;95449.97;;;3.46;89.14
63097;BME280;49185;42.320;23.198;2022-10-16T02:16:36;95457.09;;;3.31;89.41
63097;BME280;49185;42.320;23.198;2022-10-16T02:19:03;95452.34;;;3.41;89.88
63097;BME280;49185;42.320;23.198;2022-10-16T02:21:36;95460.56;;;3.53;90.17
63097;BME280;49185;42.320;23.198;2022-10-16T02:26:52;95457.25;;;4.37;85.96
63097;BME280;49185;42.320;23.198;2022-10-16T02:29:23;95455.91;;;4.19;84.58
63097;BME280;49185;42.320;23.198;2022-10-16T02:31:54;95468.59;;;3.66;86.71
63097;BME280;49185;42.320;23.198;2022-10-16T02:34:23;95463.97;;;3.90;86.33
63097;BME280;49185;42.320;23.198;2022-10-16T02:36:52;95473.59;;;3.61;86.90
63097;BME280;49185;42.320;23.198;2022-10-16T02:39:19;95475.75;;;3.36;88.00
63097;BME280;49185;42.320;23.198;2022-10-16T02:41:45;95480.88;;;3.22;88.54
63097;BME280;49185;42.320;23.198;2022-10-16T02:44:11;95478.69;;;3.26;89.18
63097;BME280;49185;42.320;23.198;2022-10-16T02:46:36;95485.28;;;3.22;89.61
63097;BME280;49185;42.320;23.198;2022-10-16T02:49:02;95481.50;;;3.25;89.75
63097;BME280;49185;42.320;23.198;2022-10-16T02:51:28;95484.56;;;3.28;89.52
63097;BME280;49185;42.320;23.198;2022-10-16T02:53:53;95479.16;;;3.15;89.87
63097;BME280;49185;42.320;23.198;2022-10-16T02:56:19;95482.16;;;3.12;90.52
63097;BME280;49185;42.320;23.198;2022-10-16T02:58:44;95476.78;;;3.20;90.08
63097;BME280;49185;42.320;23.198;2022-10-16T03:01:10;95486.94;;;3.23;89.63
63097;BME280;49185;42.320;23.198;2022-10-16T03:03:35;95480.88;;;3.08;89.64
63097;BME280;49185;42.320;23.198;2022-10-16T03:06:01;95478.25;;;3.22;89.04
63097;BME280;49185;42.320;23.198;2022-10-16T03:08:26;95483.41;;;3.01;89.40
63097;BME280;49185;42.320;23.198;2022-10-16T03:10:52;95476.00;;;2.90;89.73
63097;BME280;49185;42.320;23.198;2022-10-16T03:13:17;95472.66;;;2.81;89.96
63097;BME280;49185;42.320;23.198;2022-10-16T03:15:43;95473.22;;;2.76;90.29
63097;BME280;49185;42.320;23.198;2022-10-16T03:18:09;95479.28;;;2.77;90.84
63097;BME280;49185;42.320;23.198;2022-10-16T03:20:34;95478.06;;;2.79;90.56
63097;BME280;49185;42.320;23.198;2022-10-16T03:23:00;95466.03;;;2.70;90.22
63097;BME280;49185;42.320;23.198;2022-10-16T03:25:25;95474.91;;;2.84;90.45
63097;BME280;49185;42.320;23.198;2022-10-16T03:27:51;95482.88;;;2.76;90.37
63097;BME280;49185;42.320;23.198;2022-10-16T03:30:16;95476.44;;;2.63;90.12
63097;BME280;49185;42.320;23.198;2022-10-16T03:32:43;95472.84;;;2.64;90.36
63097;BME280;49185;42.320;23.198;2022-10-16T03:35:09;95472.94;;;3.37;88.33
63097;BME280;49185;42.320;23.198;2022-10-16T03:37:36;95471.69;;;3.91;85.05
63097;BME280;49185;42.320;23.198;2022-10-16T03:40:02;95471.09;;;3.53;85.66
63097;BME280;49185;42.320;23.198;2022-10-16T03:42:28;95471.06;;;3.31;86.04
63097;BME280;49185;42.320;23.198;2022-10-16T03:44:53;95481.06;;;2.61;87.55
63097;BME280;49185;42.320;23.198;2022-10-16T03:47:19;95479.31;;;2.39;88.73
63097;BME280;49185;42.320;23.198;2022-10-16T03:49:44;95479.47;;;2.22;89.69
63097;BME280;49185;42.320;23.198;2022-10-16T03:52:10;95473.75;;;2.19;90.53
63097;BME280;49185;42.320;23.198;2022-10-16T03:54:35;95473.28;;;2.15;90.42
63097;BME280;49185;42.320;23.198;2022-10-16T03:57:00;95478.31;;;2.25;90.85
63097;BME280;49185;42.320;23.198;2022-10-16T03:59:26;95469.47;;;2.71;90.89
63097;BME280;49185;42.320;23.198;2022-10-16T04:01:52;95467.84;;;3.51;86.10
63097;BME280;49185;42.320;23.198;2022-10-16T04:04:17;95475.28;;;2.96;86.73
63097;BME280;49185;42.320;23.198;2022-10-16T04:06:43;95475.09;;;2.82;87.98
63097;BME280;49185;42.320;23.198;2022-10-16T04:09:08;95478.88;;;2.65;87.61
63097;BME280;49185;42.320;23.198;2022-10-16T04:11:33;95474.72;;;2.41;88.49
63097;BME280;49185;42.320;23.198;2022-10-16T04:13:59;95475.97;;;2.45;88.68
63097;BME280;49185;42.320;23.198;2022-10-16T04:16:24;95472.84;;;2.26;88.96
63097;BME280;49185;42.320;23.198;2022-10-16T04:18:50;95482.03;;;2.45;88.15
63097;BME280;49185;42.320;23.198;2022-10-16T04:21:15;95475.13;;;2.30;89.08
63097;BME280;49185;42.320;23.198;2022-10-16T04:23:42;95485.91;;;2.35;89.83
63097;BME280;49185;42.320;23.198;2022-10-16T04:26:07;95480.78;;;2.56;88.54
63097;BME280;49185;42.320;23.198;2022-10-16T04:28:33;95483.88;;;2.60;88.20
63097;BME280;49185;42.320;23.198;2022-10-16T04:30:59;95479.94;;;2.26;89.13
63097;BME280;49185;42.320;23.198;2022-10-16T04:33:24;95481.63;;;2.19;89.69
63097;BME280;49185;42.320;23.198;2022-10-16T04:35:56;95481.69;;;2.63;88.51
63097;BME280;49185;42.320;23.198;2022-10-16T04:38:22;95476.25;;;2.50;88.82
63097;BME280;49185;42.320;23.198;2022-10-16T04:40:47;95489.47;;;2.42;89.07
63097;BME280;49185;42.320;23.198;2022-10-16T04:43:12;95483.03;;;3.34;85.79
63097;BME280;49185;42.320;23.198;2022-10-16T04:45:38;95485.50;;;2.76;86.88
63097;BME280;49185;42.320;23.198;2022-10-16T04:48:03;95486.59;;;2.66;87.66
63097;BME280;49185;42.320;23.198;2022-10-16T04:50:29;95486.22;;;2.40;89.25
63097;BME280;49185;42.320;23.198;2022-10-16T04:52:54;95489.34;;;2.35;89.67
63097;BME280;49185;42.320;23.198;2022-10-16T04:55:20;95496.25;;;2.36;89.88
63097;BME280;49185;42.320;23.198;2022-10-16T04:57:45;95492.16;;;2.34;89.83
63097;BME280;49185;42.320;23.198;2022-10-16T05:00:11;95498.41;;;2.33;90.19
63097;BME280;49185;42.320;23.198;2022-10-16T05:02:37;95497.97;;;2.44;90.03
63097;BME280;49185;42.320;23.198;2022-10-16T05:05:02;95503.66;;;2.33;90.08
63097;BME280;49185;42.320;23.198;2022-10-16T05:07:28;95514.69;;;2.28;89.95
63097;BME280;49185;42.320;23.198;2022-10-16T05:09:53;95508.38;;;2.37;89.82
63097;BME280;49185;42.320;23.198;2022-10-16T05:12:19;95514.88;;;2.64;89.31
63097;BME280;49185;42.320;23.198;2022-10-16T05:14:44;95512.44;;;2.93;88.29
63097;BME280;49185;42.320;23.198;2022-10-16T05:17:10;95519.75;;;3.27;87.43
63097;BME280;49185;42.320;23.198;2022-10-16T05:19:35;95513.91;;;3.47;86.58
63097;BME280;49185;42.320;23.198;2022-10-16T05:22:01;95519.09;;;3.55;86.90
63097;BME280;49185;42.320;23.198;2022-10-16T05:24:26;95515.00;;;3.89;86.26
63097;BME280;49185;42.320;23.198;2022-10-16T05:26:52;95528.34;;;4.09;86.21
63097;BME280;49185;42.320;23.198;2022-10-16T05:29:18;95520.56;;;4.44;85.32
63097;BME280;49185;42.320;23.198;2022-10-16T05:31:44;95526.63;;;4.44;84.87
63097;BME280;49185;42.320;23.198;2022-10-16T05:34:09;95523.06;;;4.80;83.85
63097;BME280;49185;42.320;23.198;2022-10-16T05:36:34;95533.22;;;5.60;80.14
63097;BME280;49185;42.320;23.198;2022-10-16T05:39:00;95524.06;;;5.56;80.43
63097;BME280;49185;42.320;23.198;2022-10-16T05:41:25;95519.19;;;5.53;80.97
63097;BME280;49185;42.320;23.198;2022-10-16T05:43:51;95531.34;;;6.02;80.34
63097;BME280;49185;42.320;23.198;2022-10-16T05:46:17;95522.34;;;8.84;68.74
63097;BME280;49185;42.320;23.198;2022-10-16T05:48:43;95522.84;;;9.55;66.62
63097;BME280;49185;42.320;23.198;2022-10-16T05:51:13;95522.38;;;10.67;60.63
63097;BME280;49185;42.320;23.198;2022-10-16T05:53:39;95528.03;;;11.42;58.51
63097;BME280;49185;42.320;23.198;2022-10-16T05:56:07;95525.50;;;13.24;50.47
63097;BME280;49185;42.320;23.198;2022-10-16T05:58:36;95527.72;;;14.16;46.62
63097;BME280;49185;42.320;23.198;2022-10-16T06:01:15;95519.66;;;13.89;47.81
63097;BME280;49185;42.320;23.198;2022-10-16T06:03:41;95536.34;;;13.35;49.66
63097;BME280;49185;42.320;23.198;2022-10-16T06:06:14;95536.41;;;13.06;51.87
63097;BME280;49185;42.320;23.198;2022-10-16T06:08:41;95544.50;;;12.60;53.06
63097;BME280;49185;42.320;23.198;2022-10-16T06:11:09;95545.75;;;12.12;54.73
63097;BME280;49185;42.320;23.198;2022-10-16T06:13:35;95549.66;;;12.50;54.29
63097;BME280;49185;42.320;23.198;2022-10-16T06:16:03;95544.72;;;14.81;47.68
63097;BME280;49185;42.320;23.198;2022-10-16T06:18:29;95554.03;;;13.58;50.47
63097;BME280;49185;42.320;23.198;2022-10-16T06:20:55;95555.19;;;14.06;49.09
63097;BME280;49185;42.320;23.198;2022-10-16T06:23:22;95557.72;;;13.01;51.32
63097;BME280;49185;42.320;23.198;2022-10-16T06:25:47;95562.81;;;12.11;54.81
63097;BME280;49185;42.320;23.198;2022-10-16T06:28:16;95566.38;;;11.52;57.60
63097;BME280;49185;42.320;23.198;2022-10-16T06:30:42;95577.09;;;9.65;62.72
63097;BME280;49185;42.320;23.198;2022-10-16T06:33:07;95573.41;;;10.15;63.67
63097;BME280;49185;42.320;23.198;2022-10-16T06:35:33;95572.59;;;11.82;59.09
63097;BME280;49185;42.320;23.198;2022-10-16T06:37:58;95574.81;;;11.73;56.81
63097;BME280;49185;42.320;23.198;2022-10-16T06:40:24;95575.41;;;11.04;60.14
63097;BME280;49185;42.320;23.198;2022-10-16T06:42:49;95580.56;;;10.63;61.46
63097;BME280;49185;42.320;23.198;2022-10-16T06:45:15;95592.97;;;10.81;61.38
63097;BME280;49185;42.320;23.198;2022-10-16T06:47:40;95588.53;;;11.41;60.15
63097;BME280;49185;42.320;23.198;2022-10-16T06:50:06;95588.97;;;12.54;57.09
63097;BME280;49185;42.320;23.198;2022-10-16T06:52:32;95587.59;;;13.48;54.46
63097;BME280;49185;42.320;23.198;2022-10-16T06:54:57;95589.31;;;13.38;53.91
63097;BME280;49185;42.320;23.198;2022-10-16T06:57:23;95586.69;;;13.09;54.13
63097;BME280;49185;42.320;23.198;2022-10-16T06:59:48;95595.56;;;14.27;51.43
63097;BME280;49185;42.320;23.198;2022-10-16T07:02:14;95596.28;;;13.39;53.83
63097;BME280;49185;42.320;23.198;2022-10-16T07:04:39;95600.97;;;14.54;51.15
63097;BME280;49185;42.320;23.198;2022-10-16T07:07:05;95596.34;;;14.49;50.36
63097;BME280;49185;42.320;23.198;2022-10-16T07:09:30;95606.38;;;13.54;53.70
63097;BME280;49185;42.320;23.198;2022-10-16T07:11:55;95609.91;;;13.76;54.30
63097;BME280;49185;42.320;23.198;2022-10-16T07:14:21;95604.19;;;14.34;52.03
63097;BME280;49185;42.320;23.198;2022-10-16T07:16:47;95605.91;;;13.96;54.06
63097;BME280;49185;42.320;23.198;2022-10-16T07:19:14;95607.97;;;14.82;51.24
63097;BME280;49185;42.320;23.198;2022-10-16T07:21:40;95605.03;;;14.34;52.78
63097;BME280;49185;42.320;23.198;2022-10-16T07:24:14;95605.66;;;13.58;54.68
63097;BME280;49185;42.320;23.198;2022-10-16T07:26:42;95604.09;;;14.73;52.99
63097;BME280;49185;42.320;23.198;2022-10-16T07:29:16;95604.41;;;14.76;51.80
63097;BME280;49185;42.320;23.198;2022-10-16T07:31:43;95609.47;;;13.84;54.17
63097;BME280;49185;42.320;23.198;2022-10-16T07:34:10;95612.03;;;13.74;54.96
63097;BME280;49185;42.320;23.198;2022-10-16T07:36:36;95610.63;;;14.11;55.19
63097;BME280;49185;42.320;23.198;2022-10-16T07:39:02;95614.06;;;15.74;50.40
63097;BME280;49185;42.320;23.198;2022-10-16T07:41:28;95608.69;;;14.50;52.83
63097;BME280;49185;42.320;23.198;2022-10-16T07:43:54;95609.88;;;14.87;52.18
63097;BME280;49185;42.320;23.198;2022-10-16T07:46:21;95619.19;;;14.13;54.30
63097;BME280;49185;42.320;23.198;2022-10-16T07:48:47;95618.19;;;13.24;57.78
63097;BME280;49185;42.320;23.198;2022-10-16T07:51:16;95615.94;;;14.55;52.63
63097;BME280;49185;42.320;23.198;2022-10-16T07:53:42;95618.59;;;15.04;52.23
63097;BME280;49185;42.320;23.198;2022-10-16T07:56:08;95618.16;;;14.58;51.14
63097;BME280;49185;42.320;23.198;2022-10-16T07:58:34;95622.06;;;14.72;51.64
63097;BME280;49185;42.320;23.198;2022-10-16T08:01:04;95620.41;;;14.66;51.63
63097;BME280;49185;42.320;23.198;2022-10-16T08:03:31;95623.06;;;14.93;51.62
63097;BME280;49185;42.320;23.198;2022-10-16T08:05:57;95627.81;;;14.59;51.53
63097;BME280;49185;42.320;23.198;2022-10-16T08:08:23;95621.56;;;15.40;51.57
63097;BME280;49185;42.320;23.198;2022-10-16T08:10:49;95623.31;;;15.56;49.63
63097;BME280;49185;42.320;23.198;2022-10-16T08:13:14;95614.31;;;15.35;50.63
63097;BME280;49185;42.320;23.198;2022-10-16T08:15:41;95613.09;;;15.91;49.09
63097;BME280;49185;42.320;23.198;2022-10-16T08:18:06;95613.28;;;15.79;49.44
63097;BME280;49185;42.320;23.198;2022-10-16T08:20:33;95618.31;;;16.18;48.45
63097;BME280;49185;42.320;23.198;2022-10-16T08:22:59;95616.13;;;17.76;44.14
63097;BME280;49185;42.320;23.198;2022-10-16T08:25:25;95612.97;;;17.33;44.91
63097;BME280;49185;42.320;23.198;2022-10-16T08:27:51;95608.00;;;16.58;46.53
63097;BME280;49185;42.320;23.198;2022-10-16T08:30:18;95622.03;;;16.07;48.42
63097;BME280;49185;42.320;23.198;2022-10-16T08:32:44;95608.91;;;17.04;46.08
63097;BME280;49185;42.320;23.198;2022-10-16T08:35:10;95604.63;;;17.24;45.75
63097;BME280;49185;42.320;23.198;2022-10-16T08:37:36;95610.22;;;17.84;43.35
63097;BME280;49185;42.320;23.198;2022-10-16T08:40:02;95607.31;;;17.50;43.73
63097;BME280;49185;42.320;23.198;2022-10-16T08:45:19;95613.19;;;17.98;42.97
63097;BME280;49185;42.320;23.198;2022-10-16T08:50:37;95614.19;;;16.63;46.47
63097;BME280;49185;42.320;23.198;2022-10-16T08:53:04;95611.56;;;16.79;46.62
63097;BME280;49185;42.320;23.198;2022-10-16T08:55:42;95602.47;;;17.36;45.71
63097;BME280;49185;42.320;23.198;2022-10-16T08:58:19;95611.34;;;17.47;43.45
63097;BME280;49185;42.320;23.198;2022-10-16T09:00:48;95612.38;;;16.84;45.73
63097;BME280;49185;42.320;23.198;2022-10-16T09:03:43;95609.00;;;16.31;47.17
63097;BME280;49185;42.320;23.198;2022-10-16T09:08:57;95610.44;;;16.59;46.48
63097;BME280;49185;42.320;23.198;2022-10-16T09:14:41;95597.09;;;17.26;43.28
63097;BME280;49185;42.320;23.198;2022-10-16T09:22:31;95606.75;;;17.01;45.95
63097;BME280;49185;42.320;23.198;2022-10-16T09:25:00;95600.03;;;17.65;43.82
63097;BME280;49185;42.320;23.198;2022-10-16T09:27:35;95602.47;;;17.31;44.93
63097;BME280;49185;42.320;23.198;2022-10-16T09:30:06;95603.69;;;18.21;42.60
63097;BME280;49185;42.320;23.198;2022-10-16T09:32:35;95596.28;;;17.46;41.92
63097;BME280;49185;42.320;23.198;2022-10-16T09:35:03;95601.00;;;16.51;45.22
63097;BME280;49185;42.320;23.198;2022-10-16T09:37:29;95596.28;;;17.25;43.23
63097;BME280;49185;42.320;23.198;2022-10-16T09:39:56;95593.06;;;17.08;42.19
63097;BME280;49185;42.320;23.198;2022-10-16T09:42:27;95590.66;;;17.37;42.59
63097;BME280;49185;42.320;23.198;2022-10-16T09:44:53;95582.31;;;17.39;42.33
63097;BME280;49185;42.320;23.198;2022-10-16T09:47:24;95580.38;;;17.65;41.62
63097;BME280;49185;42.320;23.198;2022-10-16T09:50:02;95583.63;;;17.41;42.93
63097;BME280;49185;42.320;23.198;2022-10-16T09:52:29;95573.09;;;17.86;39.98
63097;BME280;49185;42.320;23.198;2022-10-16T09:55:09;95581.38;;;18.05;40.06
63097;BME280;49185;42.320;23.198;2022-10-16T09:57:48;95585.75;;;17.91;38.34
63097;BME280;49185;42.320;23.198;2022-10-16T10:00:16;95575.09;;;18.25;39.07
63097;BME280;49185;42.320;23.198;2022-10-16T10:02:42;95586.25;;;18.63;39.16
63097;BME280;49185;42.320;23.198;2022-10-16T10:05:25;95579.88;;;19.28;37.39
63097;BME280;49185;42.320;23.198;2022-10-16T10:07:59;95575.00;;;18.95;37.71
63097;BME280;49185;42.320;23.198;2022-10-16T10:10:28;95565.00;;;18.51;36.82
63097;BME280;49185;42.320;23.198;2022-10-16T10:12:55;95567.66;;;19.41;36.39
63097;BME280;49185;42.320;23.198;2022-10-16T10:15:21;95571.03;;;19.22;35.49
63097;BME280;49185;42.320;23.198;2022-10-16T10:17:53;95572.78;;;19.66;35.31
63097;BME280;49185;42.320;23.198;2022-10-16T10:20:30;95562.47;;;19.15;36.21
63097;BME280;49185;42.320;23.198;2022-10-16T10:22:56;95563.00;;;19.46;35.51
63097;BME280;49185;42.320;23.198;2022-10-16T10:25:54;95547.56;;;20.05;37.47
63097;BME280;49185;42.320;23.198;2022-10-16T10:28:38;95555.03;;;20.14;38.67
63097;BME280;49185;42.320;23.198;2022-10-16T10:31:17;95549.63;;;20.14;37.71
63097;BME280;49185;42.320;23.198;2022-10-16T10:36:40;95552.50;;;19.45;36.34
63097;BME280;49185;42.320;23.198;2022-10-16T10:39:14;95549.03;;;19.39;35.99
63097;BME280;49185;42.320;23.198;2022-10-16T11:01:09;95520.06;;;22.19;29.28
63097;BME280;49185;42.320;23.198;2022-10-16T11:11:31;95510.09;;;21.46;30.96
63097;BME280;49185;42.320;23.198;2022-10-16T11:16:28;95499.88;;;21.42;30.88
63097;BME280;49185;42.320;23.198;2022-10-16T11:19:18;95497.41;;;22.66;26.44
63097;BME280;49185;42.320;23.198;2022-10-16T11:21:50;95491.97;;;22.66;27.16
63097;BME280;49185;42.320;23.198;2022-10-16T11:24:23;95499.25;;;23.47;26.29
63097;BME280;49185;42.320;23.198;2022-10-16T11:26:55;95486.44;;;22.21;28.04
63097;BME280;49185;42.320;23.198;2022-10-16T11:29:28;95494.75;;;22.74;27.21
63097;BME280;49185;42.320;23.198;2022-10-16T11:32:01;95492.16;;;22.69;27.86
63097;BME280;49185;42.320;23.198;2022-10-16T11:34:40;95491.72;;;23.44;25.08
63097;BME280;49185;42.320;23.198;2022-10-16T11:37:32;95490.75;;;22.72;25.11
63097;BME280;49185;42.320;23.198;2022-10-16T11:40:19;95488.09;;;23.26;23.54
63097;BME280;49185;42.320;23.198;2022-10-16T11:42:50;95488.72;;;23.23;25.60
63097;BME280;49185;42.320;23.198;2022-10-16T11:47:54;95489.84;;;22.99;25.15
63097;BME280;49185;42.320;23.198;2022-10-16T11:53:04;95475.50;;;21.56;27.07
63097;BME280;49185;42.320;23.198;2022-10-16T11:55:42;95481.66;;;21.76;26.13
63097;BME280;49185;42.320;23.198;2022-10-16T11:58:34;95480.31;;;20.99;26.81
63097;BME280;49185;42.320;23.198;2022-10-16T12:03:40;95473.00;;;20.66;26.08
63097;BME280;49185;42.320;23.198;2022-10-16T12:09:03;95472.38;;;20.13;27.58
63097;BME280;49185;42.320;23.198;2022-10-16T12:14:20;95476.59;;;20.00;28.45
63097;BME280;49185;42.320;23.198;2022-10-16T12:19:18;95472.31;;;20.37;27.30
63097;BME280;49185;42.320;23.198;2022-10-16T12:21:44;95475.53;;;19.77;28.12
63097;BME280;49185;42.320;23.198;2022-10-16T12:26:50;95471.94;;;19.57;29.05
63097;BME280;49185;42.320;23.198;2022-10-16T12:29:41;95469.22;;;19.57;29.63
63097;BME280;49185;42.320;23.198;2022-10-16T12:34:49;95468.94;;;19.83;29.04
63097;BME280;49185;42.320;23.198;2022-10-16T12:37:22;95471.81;;;19.67;29.27
63097;BME280;49185;42.320;23.198;2022-10-16T12:39:49;95472.44;;;19.59;28.93
63097;BME280;49185;42.320;23.198;2022-10-16T12:42:32;95481.44;;;19.25;28.71
63097;BME280;49185;42.320;23.198;2022-10-16T12:44:57;95478.50;;;19.22;28.49
63097;BME280;49185;42.320;23.198;2022-10-16T12:47:36;95479.44;;;19.07;29.36
63097;BME280;49185;42.320;23.198;2022-10-16T12:50:03;95484.22;;;19.15;29.34
63097;BME280;49185;42.320;23.198;2022-10-16T12:52:36;95479.91;;;19.43;28.81
63097;BME280;49185;42.320;23.198;2022-10-16T12:55:04;95479.44;;;19.36;29.12
63097;BME280;49185;42.320;23.198;2022-10-16T13:08:20;95486.25;;;18.99;29.17
63097;BME280;49185;42.320;23.198;2022-10-16T13:11:03;95497.28;;;19.03;30.29
63097;BME280;49185;42.320;23.198;2022-10-16T13:16:27;95491.69;;;18.94;29.75
63097;BME280;49185;42.320;23.198;2022-10-16T13:21:51;95486.84;;;18.91;29.74
63097;BME280;49185;42.320;23.198;2022-10-16T13:29:58;95499.78;;;18.54;30.61
63097;BME280;49185;42.320;23.198;2022-10-16T13:32:26;95495.50;;;18.48;30.63
63097;BME280;49185;42.320;23.198;2022-10-16T13:34:52;95496.34;;;18.44;29.82
63097;BME280;49185;42.320;23.198;2022-10-16T13:37:20;95504.03;;;18.60;29.78
63097;BME280;49185;42.320;23.198;2022-10-16T13:39:46;95497.63;;;18.51;30.32
63097;BME280;49185;42.320;23.198;2022-10-16T13:42:16;95496.47;;;18.63;30.52
63097;BME280;49185;42.320;23.198;2022-10-16T13:44:49;95496.06;;;18.50;31.09
63097;BME280;49185;42.320;23.198;2022-10-16T13:47:21;95493.63;;;18.49;30.27
63097;BME280;49185;42.320;23.198;2022-10-16T13:50:11;95494.72;;;18.43;30.43
63097;BME280;49185;42.320;23.198;2022-10-16T13:52:37;95496.06;;;18.45;30.67
63097;BME280;49185;42.320;23.198;2022-10-16T13:55:03;95505.56;;;18.32;30.35
63097;BME280;49185;42.320;23.198;2022-10-16T13:57:29;95496.72;;;18.27;31.10
63097;BME280;49185;42.320;23.198;2022-10-16T13:59:54;95501.88;;;18.18;31.74
63097;BME280;49185;42.320;23.198;2022-10-16T14:02:37;95509.16;;;18.17;31.75
63097;BME280;49185;42.320;23.198;2022-10-16T14:05:08;95506.53;;;18.02;31.75
63097;BME280;49185;42.320;23.198;2022-10-16T14:07:35;95498.75;;;17.95;32.20
63097;BME280;49185;42.320;23.198;2022-10-16T14:10:05;95505.50;;;17.93;32.32
63097;BME280;49185;42.320;23.198;2022-10-16T14:12:31;95505.50;;;17.93;32.55
63097;BME280;49185;42.320;23.198;2022-10-16T14:14:58;95511.72;;;17.83;33.72
63097;BME280;49185;42.320;23.198;2022-10-16T14:17:32;95506.84;;;17.85;33.75
63097;BME280;49185;42.320;23.198;2022-10-16T14:20:01;95513.88;;;17.76;33.68
63097;BME280;49185;42.320;23.198;2022-10-16T14:24:53;95508.78;;;17.69;34.29
63097;BME280;49185;42.320;23.198;2022-10-16T14:30:08;95514.75;;;17.45;34.78
63097;BME280;49185;42.320;23.198;2022-10-16T14:32:34;95516.91;;;17.49;35.22
63097;BME280;49185;42.320;23.198;2022-10-16T14:34:59;95508.88;;;17.33;35.42
63097;BME280;49185;42.320;23.198;2022-10-16T14:37:27;95512.91;;;17.31;35.44
63097;BME280;49185;42.320;23.198;2022-10-16T14:39:54;95506.16;;;17.38;34.88
63097;BME280;49185;42.320;23.198;2022-10-16T14:42:21;95510.22;;;17.20;36.04
63097;BME280;49185;42.320;23.198;2022-10-16T14:44:48;95517.25;;;17.06;36.95
63097;BME280;49185;42.320;23.198;2022-10-16T14:47:16;95523.16;;;17.18;37.01
63097;BME280;49185;42.320;23.198;2022-10-16T14:49:42;95512.13;;;16.99;37.44
63097;BME280;49185;42.320;23.198;2022-10-16T14:52:11;95519.63;;;16.82;37.65
63097;BME280;49185;42.320;23.198;2022-10-16T14:54:37;95525.31;;;16.91;37.03